Time;durP1;ratioP1;P1;durP2;ratioP2;P2;SDS_P1;SDS_P2;PMS_P1;PMS_P2;Temp;Humidity;BMP_temperature;BMP_pressure;BME280_temperature;BME280_humidity;BME280_pressure;Samples;Min_cycle;Max_cycle;Signal;HPM_P1;HPM_P2
2022/01/15 00:01:16;;;;;;;57.63;29.00;;;0.50;96.20;;;;;;5091734;28;20541;-74
2022/01/15 00:03:42;;;;;;;63.33;29.43;;;0.60;96.30;;;;;;5092128;28;20187;-71
2022/01/15 00:06:08;;;;;;;55.03;28.27;;;0.60;96.40;;;;;;5088055;28;20254;-72
2022/01/15 00:08:34;;;;;;;54.03;28.40;;;0.60;96.40;;;;;;5091798;28;20609;-71
2022/01/15 00:11:00;;;;;;;59.72;28.02;;;0.60;96.40;;;;;;5091767;28;20207;-72
2022/01/15 00:13:29;;;;;;;51.47;26.13;;;0.60;96.50;;;;;;5092170;28;20266;-72
2022/01/15 00:16:11;;;;;;;51.33;27.00;;;0.60;96.40;;;;;;5091942;28;20441;-72
2022/01/15 00:18:43;;;;;;;53.08;26.65;;;0.60;96.40;;;;;;5090726;28;20282;-71
2022/01/15 00:21:11;;;;;;;51.05;25.38;;;0.50;96.40;;;;;;5090404;28;20205;-72
2022/01/15 00:23:37;;;;;;;50.22;27.35;;;0.50;96.40;;;;;;5089289;28;20221;-73
2022/01/15 00:26:03;;;;;;;49.93;25.00;;;0.50;96.50;;;;;;5088134;28;20236;-72
2022/01/15 00:28:28;;;;;;;55.70;25.00;;;0.50;96.50;;;;;;5087831;28;20429;-73
2022/01/15 00:30:54;;;;;;;50.03;25.60;;;0.40;96.50;;;;;;5088486;28;20218;-73
2022/01/15 00:33:20;;;;;;;47.93;24.97;;;0.50;96.60;;;;;;5086820;28;20225;-74
2022/01/15 00:35:46;;;;;;;44.57;23.83;;;0.50;96.60;;;;;;5087627;28;20298;-72
2022/01/15 00:38:11;;;;;;;45.70;23.80;;;0.50;96.50;;;;;;5087257;28;20653;-73
2022/01/15 00:40:37;;;;;;;47.93;23.63;;;0.40;96.50;;;;;;5090102;28;20243;-73
2022/01/15 00:43:03;;;;;;;42.10;23.17;;;0.40;96.50;;;;;;5090554;28;20187;-72
2022/01/15 00:45:32;;;;;;;46.70;22.87;;;0.40;96.60;;;;;;5094546;28;20745;-72
2022/01/15 00:47:59;;;;;;;48.17;25.17;;;0.40;96.60;;;;;;5098066;28;20426;-72
2022/01/15 00:50:25;;;;;;;47.05;22.77;;;0.40;96.60;;;;;;5094749;28;20203;-72
2022/01/15 00:52:51;;;;;;;35.67;20.45;;;0.40;96.60;;;;;;5091024;28;20179;-71
2022/01/15 00:55:19;;;;;;;49.00;25.00;;;0.40;96.70;;;;;;5094657;28;20198;-73
2022/01/15 00:57:45;;;;;;;55.00;25.40;;;0.40;96.60;;;;;;5094649;28;20425;-71
2022/01/15 01:00:17;;;;;;;41.92;21.45;;;0.30;96.60;;;;;;5096379;28;20179;-72
2022/01/15 01:02:43;;;;;;;49.67;24.98;;;0.40;96.70;;;;;;5093392;28;20198;-73
2022/01/15 01:05:10;;;;;;;37.05;20.77;;;0.40;96.70;;;;;;5088949;28;20207;-71
2022/01/15 01:07:36;;;;;;;46.72;23.33;;;0.40;96.70;;;;;;5087538;28;20672;-71
2022/01/15 01:23:19;;;;;;;44.97;22.30;;;0.30;96.60;;;;;;5090343;28;20194;-71
2022/01/15 01:25:48;;;;;;;40.90;19.73;;;0.30;96.50;;;;;;5089813;28;20207;-72
2022/01/15 01:28:23;;;;;;;45.15;20.95;;;0.30;96.50;;;;;;5088660;28;20532;-73
2022/01/15 01:31:30;;;;;;;38.63;21.58;;;0.30;96.50;;;;;;5087006;28;20203;-73
2022/01/15 01:33:46;;;;;;;42.45;22.00;;;0.30;96.40;;;;;;5083958;28;20183;-72
2022/01/15 01:36:39;;;;;;;46.35;22.55;;;0.30;96.30;;;;;;5086971;28;20199;-71
2022/01/15 01:39:12;;;;;;;41.08;22.95;;;0.30;96.40;;;;;;5078990;28;20186;-71
2022/01/15 01:41:41;;;;;;;47.42;24.45;;;0.20;96.30;;;;;;5087308;28;20583;-71
2022/01/15 01:44:14;;;;;;;48.88;24.75;;;0.20;96.40;;;;;;5086636;28;20299;-71
2022/01/15 01:46:52;;;;;;;50.33;25.83;;;0.20;96.40;;;;;;5085237;28;20237;-72
2022/01/15 01:49:19;;;;;;;51.63;25.80;;;0.20;96.40;;;;;;5090095;28;20600;-72
2022/01/15 01:51:46;;;;;;;47.28;26.50;;;0.10;96.40;;;;;;5090701;28;21026;-72
2022/01/15 01:54:13;;;;;;;60.50;28.10;;;0.10;96.50;;;;;;5088167;28;20179;-72
2022/01/15 01:56:39;;;;;;;51.80;26.73;;;0.10;96.60;;;;;;5090016;28;20199;-72
2022/01/15 01:59:07;;;;;;;51.65;26.27;;;0.10;96.70;;;;;;5093872;28;20266;-72
2022/01/15 02:01:33;;;;;;;54.13;29.02;;;0.10;96.60;;;;;;5092169;28;20175;-71
2022/01/15 02:03:59;;;;;;;54.92;27.08;;;0.10;96.60;;;;;;5091685;28;20187;-72
2022/01/15 02:06:25;;;;;;;51.03;26.30;;;0.00;96.40;;;;;;5088581;28;20276;-72
2022/01/15 02:08:51;;;;;;;53.07;26.73;;;0.00;96.30;;;;;;5092140;28;20213;-73
2022/01/15 02:11:17;;;;;;;47.22;26.48;;;-0.10;96.20;;;;;;5092347;28;20195;-71
2022/01/15 02:13:45;;;;;;;55.90;27.33;;;-0.20;96.30;;;;;;5101101;28;20673;-72
2022/01/15 02:16:12;;;;;;;54.72;27.17;;;-0.20;96.40;;;;;;5104375;28;20224;-71
2022/01/15 02:18:38;;;;;;;52.00;26.35;;;-0.20;96.40;;;;;;5094567;28;20187;-72
2022/01/15 02:23:43;;;;;;;56.70;28.38;;;-0.20;96.60;;;;;;5091798;28;20490;-73
2022/01/15 02:26:12;;;;;;;55.03;26.67;;;-0.20;96.50;;;;;;5086552;28;20203;-73
2022/01/15 02:28:41;;;;;;;57.50;29.13;;;-0.30;96.50;;;;;;5094786;28;20199;-73
2022/01/15 02:31:14;;;;;;;52.03;26.50;;;-0.30;96.70;;;;;;5092181;28;20215;-72
2022/01/15 02:33:42;;;;;;;54.75;25.88;;;-0.20;96.80;;;;;;5091240;28;20183;-72
2022/01/15 02:36:19;;;;;;;52.63;24.70;;;-0.20;96.80;;;;;;5091545;28;20261;-73
2022/01/15 02:38:46;;;;;;;48.75;23.42;;;-0.20;96.90;;;;;;5091573;28;20187;-73
2022/01/15 02:41:12;;;;;;;49.50;25.17;;;-0.20;96.80;;;;;;5091905;28;20175;-72
2022/01/15 02:43:38;;;;;;;49.13;25.73;;;-0.20;96.90;;;;;;5090437;28;20419;-72
2022/01/15 02:46:19;;;;;;;46.80;24.90;;;-0.20;96.90;;;;;;5090052;28;20685;-71
2022/01/15 02:48:53;;;;;;;49.33;25.17;;;-0.10;97.00;;;;;;5090561;28;20464;-72
2022/01/15 02:51:20;;;;;;;43.97;23.70;;;-0.10;97.00;;;;;;5091392;28;20240;-71
2022/01/15 02:53:50;;;;;;;51.25;24.75;;;-0.20;97.00;;;;;;5090739;28;20685;-71
2022/01/15 02:56:15;;;;;;;46.60;23.15;;;-0.20;97.00;;;;;;5091132;28;20199;-73
2022/01/15 02:58:41;;;;;;;45.20;22.97;;;-0.20;96.80;;;;;;5091388;28;20209;-73
2022/01/15 03:01:07;;;;;;;50.97;24.03;;;-0.20;96.80;;;;;;5091405;28;20182;-73
2022/01/15 03:03:34;;;;;;;43.07;23.23;;;-0.30;96.80;;;;;;5089994;28;20189;-71
2022/01/15 03:05:59;;;;;;;41.25;21.20;;;-0.20;96.80;;;;;;5089248;28;20440;-71
2022/01/15 03:08:25;;;;;;;36.63;19.97;;;-0.20;96.80;;;;;;5091896;28;20185;-73
2022/01/15 03:10:51;;;;;;;38.90;21.37;;;-0.20;96.80;;;;;;5091487;28;20210;-73
2022/01/15 03:13:17;;;;;;;44.80;21.60;;;-0.20;96.70;;;;;;5089968;28;20560;-73
2022/01/15 03:15:42;;;;;;;41.87;23.40;;;-0.20;96.70;;;;;;5091176;28;20241;-73
2022/01/15 03:18:08;;;;;;;44.87;22.90;;;-0.20;96.60;;;;;;5092034;28;20187;-73
2022/01/15 03:20:34;;;;;;;43.67;23.00;;;-0.20;96.70;;;;;;5090266;28;20183;-72
2022/01/15 03:23:00;;;;;;;39.30;21.83;;;-0.30;96.70;;;;;;5088472;28;20183;-72
2022/01/15 03:25:26;;;;;;;38.13;20.10;;;-0.30;96.80;;;;;;5092591;28;20247;-72
2022/01/15 03:27:52;;;;;;;40.30;22.57;;;-0.20;96.80;;;;;;5092512;28;20175;-73
2022/01/15 03:30:18;;;;;;;35.97;20.55;;;-0.20;96.80;;;;;;5091609;28;20452;-72
2022/01/15 03:32:44;;;;;;;40.80;22.93;;;-0.30;96.70;;;;;;5090529;28;20194;-73
2022/01/15 03:35:15;;;;;;;33.50;19.97;;;-0.30;96.80;;;;;;5089878;28;20191;-72
2022/01/15 03:37:42;;;;;;;39.85;22.42;;;-0.30;96.80;;;;;;5089480;28;20183;-71
2022/01/15 03:40:10;;;;;;;46.45;25.90;;;-0.30;96.80;;;;;;5090832;28;20340;-71
2022/01/15 03:42:36;;;;;;;43.97;23.90;;;-0.30;96.90;;;;;;5089072;28;20718;-71
2022/01/15 03:45:04;;;;;;;43.05;22.90;;;-0.30;97.00;;;;;;5089808;28;20207;-73
2022/01/15 03:47:30;;;;;;;47.78;23.08;;;-0.30;97.10;;;;;;5090306;28;20181;-71
2022/01/15 03:49:55;;;;;;;40.10;21.07;;;-0.30;97.10;;;;;;5090163;28;20210;-71
2022/01/15 03:52:21;;;;;;;44.13;23.60;;;-0.30;97.20;;;;;;5088455;28;20207;-72
2022/01/15 03:54:47;;;;;;;41.80;23.60;;;-0.30;97.10;;;;;;5089617;28;20187;-72
2022/01/15 03:57:13;;;;;;;50.17;24.97;;;-0.30;97.20;;;;;;5090298;28;20453;-72
2022/01/15 03:59:38;;;;;;;45.80;22.67;;;-0.40;97.20;;;;;;5089963;28;20191;-72
2022/01/15 04:02:04;;;;;;;47.03;22.77;;;-0.30;97.20;;;;;;5090205;28;20661;-71
2022/01/15 04:04:30;;;;;;;37.70;20.40;;;-0.30;97.20;;;;;;5085897;28;20425;-71
2022/01/15 04:06:56;;;;;;;44.73;22.00;;;-0.30;97.10;;;;;;5088142;28;20668;-70
2022/01/15 04:09:22;;;;;;;37.70;20.80;;;-0.30;97.10;;;;;;5089877;28;20278;-70
2022/01/15 04:11:47;;;;;;;31.90;19.53;;;-0.30;97.00;;;;;;5088195;28;20221;-71
2022/01/15 04:14:13;;;;;;;38.93;19.30;;;-0.30;97.00;;;;;;5089436;28;20526;-71
2022/01/15 04:16:39;;;;;;;38.90;20.10;;;-0.30;96.90;;;;;;5089424;28;20202;-71
2022/01/15 04:19:07;;;;;;;39.63;21.23;;;-0.30;96.90;;;;;;5089975;28;20201;-70
2022/01/15 04:21:33;;;;;;;39.17;20.40;;;-0.30;96.80;;;;;;5088976;28;20425;-72
2022/01/15 04:24:00;;;;;;;47.60;24.20;;;-0.20;96.80;;;;;;5089228;28;20190;-72
2022/01/15 04:26:27;;;;;;;49.05;23.77;;;-0.20;96.70;;;;;;5089959;28;20202;-72
2022/01/15 04:28:53;;;;;;;47.60;25.42;;;-0.30;96.50;;;;;;5089570;28;20617;-72
2022/01/15 04:31:19;;;;;;;58.47;28.23;;;-0.40;96.40;;;;;;5091329;28;20202;-73
2022/01/15 04:33:46;;;;;;;51.97;24.30;;;-0.40;96.50;;;;;;5090296;28;20589;-73
2022/01/15 04:36:11;;;;;;;45.65;23.38;;;-0.40;96.60;;;;;;5090583;28;20198;-72
2022/01/15 04:38:39;;;;;;;50.23;24.57;;;-0.40;96.70;;;;;;5090324;28;20187;-74
2022/01/15 04:41:06;;;;;;;43.78;23.80;;;-0.40;96.70;;;;;;5091532;28;20179;-74
2022/01/15 04:43:31;;;;;;;43.95;23.98;;;-0.40;96.60;;;;;;5094734;28;20203;-74
2022/01/15 04:45:57;;;;;;;41.50;23.07;;;-0.40;96.70;;;;;;5097828;28;20214;-71
2022/01/15 04:48:23;;;;;;;44.00;22.50;;;-0.40;96.70;;;;;;5096722;28;20179;-72
2022/01/15 04:50:49;;;;;;;44.50;23.93;;;-0.40;96.60;;;;;;5095442;28;20492;-74
2022/01/15 04:53:15;;;;;;;48.50;25.30;;;-0.40;96.50;;;;;;5095362;28;20179;-72
2022/01/15 04:55:41;;;;;;;48.65;24.95;;;-0.40;96.40;;;;;;5096126;28;20433;-71
2022/01/15 04:58:07;;;;;;;48.87;26.13;;;-0.50;96.50;;;;;;5096378;28;20175;-72
2022/01/15 05:00:34;;;;;;;39.45;24.38;;;-0.60;96.50;;;;;;5094479;28;20242;-72
2022/01/15 05:03:01;;;;;;;56.00;25.63;;;-0.60;96.70;;;;;;5095054;28;20233;-72
2022/01/15 05:05:28;;;;;;;58.20;24.83;;;-0.50;96.90;;;;;;5091894;28;20230;-72
2022/01/15 05:07:55;;;;;;;40.05;22.13;;;-0.50;96.90;;;;;;5090949;28;20175;-72
2022/01/15 05:10:26;;;;;;;45.92;23.52;;;-0.40;96.90;;;;;;5093642;28;20214;-71
2022/01/15 05:12:55;;;;;;;40.28;21.77;;;-0.40;96.90;;;;;;5092309;28;20175;-71
2022/01/15 05:15:21;;;;;;;45.63;23.95;;;-0.40;96.60;;;;;;5089680;28;20682;-71
2022/01/15 05:17:48;;;;;;;47.63;24.73;;;-0.50;96.40;;;;;;5089643;28;20206;-72
2022/01/15 05:20:18;;;;;;;46.83;24.13;;;-0.50;96.50;;;;;;5089234;28;20666;-72
2022/01/15 05:22:45;;;;;;;43.08;25.10;;;-0.50;96.50;;;;;;5090580;28;20183;-71
2022/01/15 05:25:13;;;;;;;45.28;23.00;;;-0.60;96.50;;;;;;5093347;28;20482;-71
2022/01/15 05:27:40;;;;;;;47.70;23.70;;;-0.60;96.60;;;;;;5093677;28;20186;-72
2022/01/15 05:30:07;;;;;;;41.20;22.58;;;-0.60;96.60;;;;;;5092107;28;20306;-71
2022/01/15 05:32:33;;;;;;;43.42;23.33;;;-0.60;96.60;;;;;;5093713;28;20212;-71
2022/01/15 05:35:00;;;;;;;38.17;21.65;;;-0.60;96.60;;;;;;5094613;28;20203;-72
2022/01/15 05:37:26;;;;;;;43.45;22.52;;;-0.60;96.60;;;;;;5095711;28;20171;-72
2022/01/15 05:39:51;;;;;;;44.90;22.17;;;-0.60;96.60;;;;;;5094425;28;20243;-70
2022/01/15 05:42:17;;;;;;;40.47;22.00;;;-0.60;96.60;;;;;;5093007;28;20240;-72
2022/01/15 05:44:43;;;;;;;43.30;22.90;;;-0.60;96.60;;;;;;5092995;28;20203;-72
2022/01/15 05:47:09;;;;;;;43.37;22.07;;;-0.60;96.60;;;;;;5093222;28;20251;-72
2022/01/15 05:49:35;;;;;;;43.43;22.60;;;-0.60;96.60;;;;;;5092982;28;20186;-73
2022/01/15 05:52:02;;;;;;;43.00;22.90;;;-0.60;96.50;;;;;;5093106;28;20508;-72
2022/01/15 05:54:28;;;;;;;49.97;23.67;;;-0.70;96.50;;;;;;5092392;28;20175;-73
2022/01/15 05:56:54;;;;;;;45.50;22.40;;;-0.60;96.50;;;;;;5083210;28;20248;-71
2022/01/15 05:59:20;;;;;;;39.75;21.60;;;-0.60;96.50;;;;;;5092827;28;20176;-71
2022/01/15 06:01:46;;;;;;;41.50;23.07;;;-0.60;96.50;;;;;;5093236;28;20655;-73
2022/01/15 06:04:11;;;;;;;37.40;22.57;;;-0.60;96.40;;;;;;5091455;28;20194;-73
2022/01/15 06:06:37;;;;;;;45.23;25.13;;;-0.70;96.40;;;;;;5090912;28;20251;-71
2022/01/15 06:09:03;;;;;;;37.13;20.63;;;-0.70;96.50;;;;;;5092871;28;20187;-72
2022/01/15 06:11:30;;;;;;;36.70;21.50;;;-0.70;96.50;;;;;;5092180;28;20488;-72
2022/01/15 06:13:56;;;;;;;44.63;24.98;;;-0.70;96.60;;;;;;5092536;28;20417;-72
2022/01/15 06:16:22;;;;;;;44.85;23.15;;;-0.60;96.70;;;;;;5102225;28;20211;-71
2022/01/15 06:18:48;;;;;;;46.72;22.70;;;-0.60;96.70;;;;;;5098022;28;20241;-72
2022/01/15 06:21:14;;;;;;;46.83;24.48;;;-0.70;96.50;;;;;;5100776;28;20557;-71
2022/01/15 06:23:40;;;;;;;39.73;21.87;;;-0.70;96.40;;;;;;5093622;28;20198;-70
2022/01/15 06:26:07;;;;;;;39.63;21.25;;;-0.80;96.40;;;;;;5095758;28;20575;-72
2022/01/15 06:28:32;;;;;;;40.28;23.08;;;-0.80;96.40;;;;;;5096923;28;20181;-71
2022/01/15 06:30:58;;;;;;;39.50;21.63;;;-0.80;96.50;;;;;;5099023;28;20230;-72
2022/01/15 06:33:24;;;;;;;44.23;24.03;;;-0.70;96.60;;;;;;5097677;28;20417;-73
2022/01/15 06:35:50;;;;;;;46.17;23.43;;;-0.80;96.50;;;;;;5098015;28;20218;-72
2022/01/15 06:38:15;;;;;;;41.63;21.53;;;-0.80;96.50;;;;;;5097749;28;20256;-72
2022/01/15 06:40:41;;;;;;;42.03;22.90;;;-0.80;96.60;;;;;;5096547;28;20183;-72
2022/01/15 06:43:07;;;;;;;38.20;22.10;;;-0.80;96.60;;;;;;5091798;28;20743;-74
2022/01/15 06:45:34;;;;;;;40.50;22.33;;;-0.80;96.60;;;;;;5091145;28;20666;-71
2022/01/15 06:48:01;;;;;;;44.83;24.48;;;-0.80;96.60;;;;;;5092765;28;20190;-72
2022/01/15 06:50:28;;;;;;;38.65;21.38;;;-0.80;96.50;;;;;;5088662;28;20298;-72
2022/01/15 06:52:54;;;;;;;43.55;22.70;;;-0.80;96.50;;;;;;5085020;28;20561;-72
2022/01/15 06:55:20;;;;;;;35.35;20.92;;;-0.80;96.50;;;;;;5090718;28;20195;-72
2022/01/15 06:57:45;;;;;;;43.10;23.10;;;-0.80;96.50;;;;;;5091139;28;20518;-73
2022/01/15 07:00:12;;;;;;;43.80;22.03;;;-0.80;96.60;;;;;;5091371;28;20185;-73
2022/01/15 07:02:38;;;;;;;41.10;21.75;;;-0.80;96.60;;;;;;5090980;28;20535;-72
2022/01/15 07:05:05;;;;;;;43.23;22.30;;;-0.80;96.70;;;;;;5087252;28;20986;-71
2022/01/15 07:07:31;;;;;;;40.00;22.05;;;-0.70;96.60;;;;;;5092076;28;20453;-72
2022/01/15 07:09:57;;;;;;;43.55;21.50;;;-0.80;96.50;;;;;;5096123;28;20194;-72
2022/01/15 07:12:23;;;;;;;39.20;21.07;;;-0.80;96.50;;;;;;5094176;28;20206;-72
2022/01/15 07:14:49;;;;;;;37.37;20.03;;;-0.80;96.40;;;;;;5093163;28;20907;-73
2022/01/15 07:17:14;;;;;;;35.70;20.07;;;-0.80;96.40;;;;;;5091594;28;20650;-73
2022/01/15 07:19:40;;;;;;;33.83;19.23;;;-0.80;96.30;;;;;;5091811;28;20183;-73
2022/01/15 07:22:07;;;;;;;31.10;19.50;;;-0.90;96.30;;;;;;5093779;28;20437;-72
2022/01/15 07:24:33;;;;;;;34.88;18.88;;;-0.80;96.40;;;;;;5095712;28;20187;-73
2022/01/15 07:26:59;;;;;;;37.97;21.10;;;-0.70;96.40;;;;;;5091392;28;20194;-73
2022/01/15 07:29:25;;;;;;;42.45;22.20;;;-0.70;96.50;;;;;;5094156;28;20429;-73
2022/01/15 07:31:53;;;;;;;38.72;19.88;;;-0.70;96.40;;;;;;5094159;28;20397;-75
2022/01/15 07:34:19;;;;;;;39.40;21.48;;;-0.70;96.30;;;;;;5094342;28;20182;-73
2022/01/15 07:36:52;;;;;;;39.30;21.77;;;-0.70;96.20;;;;;;5093094;28;20207;-73
2022/01/15 07:39:18;;;;;;;38.75;21.88;;;-0.70;96.20;;;;;;5093598;28;20179;-74
2022/01/15 07:41:44;;;;;;;41.53;22.97;;;-0.70;96.10;;;;;;5092742;28;20544;-74
2022/01/15 07:44:09;;;;;;;46.85;23.17;;;-0.60;95.90;;;;;;5090088;28;20422;-73
2022/01/15 07:46:35;;;;;;;49.27;23.77;;;-0.60;95.80;;;;;;5089273;28;20858;-74
2022/01/15 07:49:01;;;;;;;45.33;22.43;;;-0.70;95.60;;;;;;5091752;28;20189;-74
2022/01/15 07:51:28;;;;;;;37.05;20.92;;;-0.70;95.60;;;;;;5091450;28;20482;-74
2022/01/15 07:53:53;;;;;;;45.78;23.95;;;-0.60;95.60;;;;;;5082183;28;20245;-74
2022/01/15 07:56:19;;;;;;;43.07;22.97;;;-0.50;95.60;;;;;;5090709;28;20605;-74
2022/01/15 07:58:46;;;;;;;45.37;23.87;;;-0.50;95.40;;;;;;5090935;28;20474;-74
2022/01/15 08:01:11;;;;;;;37.50;20.55;;;-0.50;95.30;;;;;;5089532;28;20421;-72
2022/01/15 08:03:37;;;;;;;45.53;22.30;;;-0.60;95.20;;;;;;5092367;28;20194;-74
2022/01/15 08:06:03;;;;;;;42.00;22.80;;;-0.60;95.20;;;;;;5088454;28;20199;-73
2022/01/15 08:08:29;;;;;;;47.10;22.23;;;-0.60;95.10;;;;;;5090193;28;20700;-74
2022/01/15 08:10:54;;;;;;;47.47;23.57;;;-0.60;95.00;;;;;;5088676;28;20239;-74
2022/01/15 08:13:20;;;;;;;39.20;22.30;;;-0.60;95.00;;;;;;5090244;28;20473;-73
2022/01/15 08:15:46;;;;;;;40.20;23.53;;;-0.60;94.80;;;;;;5088763;28;20199;-73
2022/01/15 08:18:12;;;;;;;46.57;22.67;;;-0.60;94.70;;;;;;5090413;28;20187;-72
2022/01/15 08:20:37;;;;;;;34.57;21.20;;;-0.60;94.80;;;;;;5089355;28;20553;-73
2022/01/15 08:23:03;;;;;;;43.37;23.13;;;-0.50;94.90;;;;;;5087483;28;20183;-73
2022/01/15 08:25:29;;;;;;;40.60;23.60;;;-0.50;94.80;;;;;;5089204;28;20203;-72
2022/01/15 08:27:55;;;;;;;47.53;22.87;;;-0.50;94.80;;;;;;5089369;28;20830;-73
2022/01/15 08:30:23;;;;;;;40.77;22.33;;;-0.40;94.80;;;;;;5088087;28;20492;-72
2022/01/15 08:32:49;;;;;;;43.45;23.55;;;-0.40;94.90;;;;;;5088639;28;20581;-72
2022/01/15 08:35:15;;;;;;;40.55;22.50;;;-0.40;94.80;;;;;;5088613;28;20305;-73
2022/01/15 08:37:44;;;;;;;46.40;23.40;;;-0.40;94.50;;;;;;5088098;28;20187;-72
2022/01/15 08:40:13;;;;;;;45.33;23.38;;;-0.40;94.60;;;;;;5086834;28;20588;-74
2022/01/15 08:42:39;;;;;;;48.13;24.05;;;-0.30;94.60;;;;;;5089221;28;20252;-73
2022/01/15 08:45:06;;;;;;;42.05;24.08;;;-0.20;94.50;;;;;;5086804;28;20275;-74
2022/01/15 08:47:32;;;;;;;49.92;25.40;;;-0.10;94.40;;;;;;5087927;28;20187;-74
2022/01/15 08:49:58;;;;;;;43.60;22.90;;;-0.10;94.40;;;;;;5087902;28;20194;-74
2022/01/15 08:52:24;;;;;;;41.10;22.27;;;0.00;94.30;;;;;;5088556;28;20445;-72
2022/01/15 08:54:50;;;;;;;47.87;24.33;;;0.00;94.10;;;;;;5087505;28;20215;-74
2022/01/15 08:57:16;;;;;;;42.13;23.40;;;0.10;93.90;;;;;;5088083;28;20417;-74
2022/01/15 08:59:42;;;;;;;41.05;22.80;;;0.20;93.70;;;;;;5092186;28;20179;-75
2022/01/15 09:02:10;;;;;;;49.28;23.55;;;0.30;93.60;;;;;;5091967;28;20203;-73
2022/01/15 09:04:37;;;;;;;45.35;22.65;;;0.30;93.40;;;;;;5091591;28;20920;-74
2022/01/15 09:07:03;;;;;;;40.20;22.77;;;0.30;93.30;;;;;;5085948;28;20194;-72
2022/01/15 09:09:29;;;;;;;39.83;22.27;;;0.40;93.30;;;;;;5091911;28;20187;-73
2022/01/15 09:11:54;;;;;;;38.50;22.83;;;0.40;93.30;;;;;;5092111;28;20206;-73
2022/01/15 09:14:20;;;;;;;47.43;23.83;;;0.50;93.20;;;;;;5091362;28;20175;-74
2022/01/15 09:16:46;;;;;;;45.57;23.90;;;0.50;93.10;;;;;;5092133;28;20199;-72
2022/01/15 09:19:12;;;;;;;46.40;24.17;;;0.50;93.00;;;;;;5090769;28;20421;-73
2022/01/15 09:21:38;;;;;;;43.63;24.87;;;0.40;92.90;;;;;;5090990;28;20464;-71
2022/01/15 09:24:04;;;;;;;51.90;26.70;;;0.40;93.00;;;;;;5091294;28;20275;-72
2022/01/15 09:32:18;;;;;;;44.08;25.58;;;0.50;93.00;;;;;;5045853;28;20200;-74
2022/01/15 09:34:43;;;;;;;44.93;25.53;;;0.50;92.90;;;;;;5047493;28;20292;-73
2022/01/15 09:37:09;;;;;;;44.63;25.70;;;0.60;92.90;;;;;;5044308;28;20189;-74
2022/01/15 09:39:36;;;;;;;48.33;24.70;;;0.70;92.90;;;;;;5041408;28;20192;-71
2022/01/15 09:42:02;;;;;;;44.88;24.33;;;0.80;92.80;;;;;;5032486;28;20215;-72
2022/01/15 09:44:28;;;;;;;42.95;25.08;;;0.80;92.70;;;;;;5045279;28;20235;-72
2022/01/15 09:46:54;;;;;;;47.10;25.83;;;0.90;92.70;;;;;;5039192;28;20216;-71
2022/01/15 09:49:23;;;;;;;46.07;25.60;;;0.90;92.70;;;;;;5049233;28;20667;-72
2022/01/15 09:51:49;;;;;;;45.28;23.95;;;1.10;92.70;;;;;;5047136;28;20220;-72
2022/01/15 09:54:17;;;;;;;46.75;23.55;;;1.10;92.60;;;;;;5032823;28;20220;-73
2022/01/15 09:56:43;;;;;;;44.67;24.90;;;1.20;92.40;;;;;;5050151;28;20212;-71
2022/01/15 09:59:10;;;;;;;46.13;25.58;;;1.30;92.30;;;;;;5046376;28;20181;-71
2022/01/15 10:01:36;;;;;;;52.17;25.30;;;1.40;91.90;;;;;;5090951;28;20167;-72
2022/01/15 10:04:02;;;;;;;44.50;24.80;;;1.50;91.50;;;;;;5088495;28;20620;-73
2022/01/15 10:06:28;;;;;;;45.80;27.80;;;1.50;91.10;;;;;;5087753;28;20569;-73
2022/01/15 10:09:09;;;;;;;54.50;26.70;;;1.50;90.90;;;;;;5091494;28;20421;-73
2022/01/15 10:11:44;;;;;;;49.45;28.08;;;1.60;90.80;;;;;;5091120;28;20211;-73
2022/01/15 10:14:27;;;;;;;42.25;26.90;;;1.50;90.70;;;;;;5090706;28;20175;-74
2022/01/15 10:16:55;;;;;;;47.35;26.10;;;1.60;90.70;;;;;;5090859;28;20199;-74
2022/01/15 10:19:37;;;;;;;49.80;27.95;;;1.70;90.60;;;;;;5091159;28;20168;-73
2022/01/15 10:22:14;;;;;;;51.22;29.30;;;1.70;90.50;;;;;;5091113;28;20190;-73
2022/01/15 10:24:42;;;;;;;51.95;26.75;;;1.60;90.20;;;;;;5090251;28;20198;-72
2022/01/15 10:27:31;;;;;;;43.70;26.05;;;1.50;90.40;;;;;;5092420;28;20614;-73
2022/01/15 10:30:07;;;;;;;45.22;27.02;;;1.60;90.70;;;;;;5084111;28;20183;-72
2022/01/15 10:32:35;;;;;;;39.78;25.70;;;1.80;90.60;;;;;;5091204;28;20676;-72
2022/01/15 10:35:09;;;;;;;56.50;26.15;;;2.00;90.10;;;;;;5091313;28;20669;-74
2022/01/15 10:37:47;;;;;;;43.70;26.02;;;2.40;89.20;;;;;;5090873;28;20179;-73
2022/01/15 10:40:13;;;;;;;44.75;25.23;;;2.60;87.10;;;;;;5084941;28;20240;-72
2022/01/15 10:42:39;;;;;;;49.10;26.50;;;3.00;86.60;;;;;;5089645;28;20198;-73
2022/01/15 10:45:12;;;;;;;40.97;24.87;;;3.30;85.20;;;;;;5089828;28;20464;-73
2022/01/15 10:47:48;;;;;;;38.97;24.17;;;3.40;82.40;;;;;;5116495;27;20422;-73
2022/01/15 10:50:24;;;;;;;42.90;22.23;;;3.50;81.20;;;;;;5090568;28;20471;-72
2022/01/15 10:52:50;;;;;;;41.33;25.70;;;3.30;81.20;;;;;;5089142;28;20405;-74
2022/01/15 10:55:18;;;;;;;43.80;25.77;;;3.10;82.10;;;;;;5090709;28;20437;-73
2022/01/15 10:58:04;;;;;;;40.63;25.43;;;3.00;83.30;;;;;;5090772;28;20912;-74
2022/01/15 11:00:46;;;;;;;38.25;24.45;;;3.00;83.80;;;;;;5089397;28;20478;-73
2022/01/15 11:03:16;;;;;;;42.55;26.20;;;3.00;84.10;;;;;;5089837;28;20654;-74
2022/01/15 11:05:46;;;;;;;41.00;24.45;;;3.20;84.40;;;;;;5087375;28;20305;-74
2022/01/15 11:08:23;;;;;;;48.80;24.25;;;3.20;83.10;;;;;;5089933;28;20179;-73
2022/01/15 11:10:57;;;;;;;46.27;26.90;;;3.20;83.60;;;;;;5090348;28;20297;-73
2022/01/15 11:13:25;;;;;;;43.83;24.80;;;3.50;83.60;;;;;;5087509;28;20467;-72
2022/01/15 11:15:57;;;;;;;43.20;25.77;;;3.70;82.10;;;;;;5095536;28;20437;-73
2022/01/15 11:18:27;;;;;;;44.13;26.10;;;3.50;81.70;;;;;;5098690;28;20442;-72
2022/01/15 11:20:56;;;;;;;47.83;25.40;;;3.30;82.40;;;;;;5097079;28;20417;-72
2022/01/15 11:23:25;;;;;;;43.03;24.57;;;3.20;83.30;;;;;;5096942;28;20417;-73
2022/01/15 11:25:52;;;;;;;47.33;26.35;;;3.10;83.70;;;;;;5097901;28;20429;-73
2022/01/15 11:28:21;;;;;;;49.60;25.90;;;3.00;84.40;;;;;;5094442;28;20183;-72
2022/01/15 11:30:48;;;;;;;48.00;26.60;;;2.90;85.20;;;;;;5093466;28;20225;-72
2022/01/15 11:33:18;;;;;;;48.67;25.58;;;2.80;85.50;;;;;;5094797;28;20444;-73
2022/01/15 11:35:45;;;;;;;46.28;28.40;;;2.60;86.30;;;;;;5096426;28;20299;-73
2022/01/15 11:38:41;;;;;;;45.33;27.80;;;2.60;87.00;;;;;;5092762;28;20210;-75
2022/01/15 11:41:25;;;;;;;45.80;25.02;;;2.60;87.30;;;;;;5087357;28;20307;-71
2022/01/15 11:43:52;;;;;;;47.28;26.73;;;2.70;87.40;;;;;;5092939;28;20236;-72
2022/01/15 11:46:24;;;;;;;42.22;25.38;;;2.80;87.30;;;;;;5095607;28;20704;-71
2022/01/15 11:48:50;;;;;;;41.97;25.92;;;2.80;87.10;;;;;;5096150;28;20187;-74
2022/01/15 11:51:19;;;;;;;43.45;25.65;;;2.80;86.90;;;;;;5093021;28;20223;-74
2022/01/15 11:53:49;;;;;;;45.17;24.98;;;2.90;87.00;;;;;;5091008;28;20191;-74
2022/01/15 11:56:21;;;;;;;44.17;24.70;;;2.90;86.90;;;;;;5093180;28;20203;-72
2022/01/15 11:58:47;;;;;;;43.13;24.67;;;2.90;86.90;;;;;;5093646;28;20455;-71
2022/01/15 12:01:39;;;;;;;44.80;23.77;;;2.90;86.80;;;;;;5096370;28;20179;-71
2022/01/15 12:04:37;;;;;;;48.78;27.27;;;3.00;86.80;;;;;;5082261;28;20440;-74
2022/01/15 12:07:05;;;;;;;47.13;24.63;;;3.00;86.90;;;;;;5094674;28;20191;-75
2022/01/15 12:09:40;;;;;;;49.10;25.40;;;3.10;86.60;;;;;;5098251;28;20208;-73
2022/01/15 12:15:01;;;;;;;45.20;26.17;;;3.20;86.20;;;;;;5095931;28;20417;-71
2022/01/15 12:17:38;;;;;;;47.67;25.43;;;3.30;86.20;;;;;;5094926;28;20201;-74
2022/01/15 12:20:06;;;;;;;50.15;26.10;;;3.30;85.90;;;;;;5088187;28;21001;-71
2022/01/15 12:22:39;;;;;;;45.08;24.63;;;3.30;85.50;;;;;;5094350;28;20191;-73
2022/01/15 12:25:12;;;;;;;44.47;25.58;;;3.30;85.30;;;;;;5094690;28;20192;-74
2022/01/15 12:27:40;;;;;;;46.22;25.10;;;3.30;85.30;;;;;;5092534;28;20649;-73
2022/01/15 12:30:18;;;;;;;45.58;25.15;;;3.40;85.20;;;;;;5093620;28;20179;-74
2022/01/15 12:32:51;;;;;;;48.53;25.40;;;3.40;85.30;;;;;;5095907;28;20183;-74
2022/01/15 12:35:22;;;;;;;47.23;26.37;;;3.50;85.20;;;;;;5097902;28;20228;-73
2022/01/15 12:37:55;;;;;;;44.65;25.20;;;3.50;85.30;;;;;;5100781;28;21156;-74
2022/01/15 12:40:26;;;;;;;45.88;24.75;;;3.60;85.20;;;;;;5095520;28;20205;-74
2022/01/15 12:42:56;;;;;;;43.07;24.90;;;3.70;84.60;;;;;;5096423;28;20175;-73
2022/01/15 12:45:22;;;;;;;48.47;25.50;;;3.80;84.00;;;;;;5094906;28;20461;-74
2022/01/15 12:47:48;;;;;;;43.17;24.87;;;3.90;83.80;;;;;;5096261;28;20448;-73
2022/01/15 12:50:14;;;;;;;45.13;25.40;;;4.00;82.40;;;;;;5096971;28;20449;-74
2022/01/15 12:52:40;;;;;;;45.37;23.40;;;4.20;82.20;;;;;;5093680;28;20195;-74
2022/01/15 12:55:07;;;;;;;44.10;24.77;;;4.30;81.50;;;;;;5093770;28;20228;-74
2022/01/15 12:57:39;;;;;;;45.93;24.63;;;4.30;81.50;;;;;;5093978;28;20514;-74
2022/01/15 13:00:26;;;;;;;48.00;24.50;;;4.30;81.50;;;;;;5092674;28;20467;-74